Terminal Aerodrome Forecast
Issued by NWS Milwaukee/Sullivan, WI

Home | Current Version | Previous Version | Text Only | Print | Product List | Glossary On
Versions: 1 2 3 4 5 6 7 8 9 10 11 12 13 14 15 16 17 18 19 20 21 22 23 24 25 26 27 28 29 30 31 32 33 34 35 36 37 38 39 40 41 42 43 44 45 46 47 48 49 50
389
FTUS43 KMKX 270113 AAA
TAFMKE
TAF AMD
KMKE 270113Z 2701/2806 26009KT P6SM SCT080
     FM271300 27010G23KT P6SM SCT080
     FM271600 27014G22KT P6SM BKN080
     FM271800 27015G23KT P6SM BKN045
     FM272300 28010G18KT P6SM -SHRA OVC040
     FM280100 29007KT P6SM -SHRA OVC030
     FM280300 29007KT P6SM -SHRA OVC015=

USA.gov is the U.S. government's official web portal to all federal, state and local government web resources and services.